| time (UTC) | temp C | wind direction | speed KPH | gust KPH | rain 1hr cm | rain 24hr cm | rain mn cm | humidity % | barometer mb |
| 20260507231512 | 10 | 345 | 0.0 | 0.0 | 0.00 | 0.03 | 0.00 | 84 | 1017.9 |
| 20260507230532 | 10 | 260 | 1.6 | 4.8 | 0.00 | 0.03 | 0.00 | 84 | 1017.9 |
| 20260507225559 | 10 | 292 | 0.0 | 0.0 | 0.00 | 0.03 | 0.00 | 84 | 1018.0 |
| 20260507224520 | 10 | 260 | 0.0 | 0.0 | 0.00 | 0.03 | 0.00 | 84 | 1018.1 |
| 20260507223533 | 10 | 277 | 0.0 | 0.0 | 0.00 | 0.03 | 0.00 | 84 | 1018.0 |
| 20260507222552 | 10 | 298 | 0.0 | 0.0 | 0.00 | 0.03 | 0.00 | 84 | 1017.9 |
| 20260507221512 | 10 | 99 | 0.0 | 0.0 | 0.00 | 0.03 | 0.00 | 84 | 1017.9 |
| 20260507220533 | 10 | 287 | 0.0 | 0.0 | 0.00 | 0.03 | 0.00 | 83 | 1018.0 |
| 20260507215513 | 10 | 298 | 0.0 | 0.0 | 0.00 | 0.03 | 0.03 | 83 | 1017.8 |
| 20260507214312 | 11 | 232 | 0.0 | 0.0 | 0.00 | 0.03 | 0.03 | 81 | 1017.8 |
| 20260507213127 | 11 | 339 | 0.0 | 0.0 | 0.00 | 0.03 | 0.03 | 81 | 1017.5 |
| 20260507212212 | 11 | 219 | 4.8 | 4.8 | 0.00 | 0.03 | 0.03 | 79 | 1017.7 |
| 20260507211111 | 11 | 335 | 1.6 | 1.6 | 0.00 | 0.03 | 0.03 | 79 | 1017.6 |
| 20260507205928 | 12 | 74 | 4.8 | 4.8 | 0.00 | 0.03 | 0.03 | 77 | 1017.6 |
| 20260507204952 | 12 | 83 | 1.6 | 1.6 | 0.00 | 0.03 | 0.03 | 76 | 1017.5 |
| 20260507203932 | 12 | 69 | 0.0 | 1.6 | 0.00 | 0.03 | 0.03 | 77 | 1017.3 |
| 20260507202748 | 11 | 91 | 0.0 | 0.0 | 0.00 | 0.03 | 0.03 | 80 | 1017.4 |
| 20260507201751 | 11 | 334 | 0.0 | 0.0 | 0.00 | 0.03 | 0.03 | 80 | 1017.5 |
| 20260507200731 | 11 | 253 | 0.0 | 0.0 | 0.00 | 0.03 | 0.03 | 81 | 1017.3 |
| 20260507195528 | 11 | 247 | 0.0 | 0.0 | 0.00 | 0.03 | 0.03 | 80 | 1017.3 |
| 20260507194551 | 11 | 324 | 0.0 | 0.0 | 0.00 | 0.03 | 0.03 | 80 | 1017.3 |
| 20260507193511 | 12 | 229 | 6.4 | 8.0 | 0.00 | 0.03 | 0.03 | 81 | 1016.8 |
| 20260507192532 | 12 | 270 | 3.2 | 4.8 | 0.00 | 0.03 | 0.03 | 79 | 1017.1 |
| 20260507191559 | 12 | 338 | 1.6 | 3.2 | 0.00 | 0.03 | 0.03 | 79 | 1016.7 |
| 20260507190519 | 13 | 242 | 4.8 | 4.8 | 0.00 | 0.03 | 0.03 | 76 | 1016.7 |
| 20260507185548 | 13 | 194 | 1.6 | 3.2 | 0.00 | 0.03 | 0.03 | 77 | 1016.7 |
| 20260507184554 | 14 | 327 | 1.6 | 1.6 | 0.00 | 0.03 | 0.03 | 77 | 1017.0 |
| 20260507183532 | 15 | 84 | 0.0 | 0.0 | 0.00 | 0.03 | 0.03 | 71 | 1016.6 |
| 20260507182328 | 15 | 336 | 0.0 | 0.0 | 0.00 | 0.03 | 0.03 | 73 | 1016.3 |
| 20260507181352 | 15 | 336 | 0.0 | 0.0 | 0.00 | 0.03 | 0.03 | 70 | 1016.4 |
| 20260507180313 | 16 | 331 | 1.6 | 1.6 | 0.00 | 0.03 | 0.03 | 69 | 1016.3 |
| 20260507175128 | 16 | 121 | 0.0 | 0.0 | 0.00 | 0.03 | 0.03 | 70 | 1016.2 |
| 20260507174152 | 16 | 184 | 1.6 | 3.2 | 0.00 | 0.03 | 0.03 | 68 | 1015.9 |
| 20260507173113 | 17 | 215 | 1.6 | 3.2 | 0.00 | 0.03 | 0.03 | 68 | 1015.8 |
| 20260507171929 | 17 | 134 | 8.0 | 9.7 | 0.00 | 0.03 | 0.03 | 62 | 1015.5 |
| 20260507170952 | 17 | 164 | 4.8 | 8.0 | 0.00 | 0.03 | 0.03 | 62 | 1015.5 |
| 20260507165952 | 18 | 189 | 3.2 | 4.8 | 0.00 | 0.03 | 0.03 | 63 | 1015.6 |
| 20260507164728 | 18 | 165 | 8.0 | 9.7 | 0.00 | 0.03 | 0.03 | 63 | 1015.5 |
| 20260507163752 | 18 | 148 | 3.2 | 4.8 | 0.00 | 0.03 | 0.03 | 63 | 1015.5 |
| 20260507162712 | 18 | 152 | 8.0 | 9.7 | 0.00 | 0.03 | 0.03 | 63 | 1015.6 |
| 20260507161530 | 18 | 204 | 8.0 | 11.3 | 0.00 | 0.03 | 0.03 | 64 | 1015.9 |
| 20260507160553 | 18 | 143 | 8.0 | 11.3 | 0.00 | 0.03 | 0.03 | 64 | 1015.9 |
| 20260507155515 | 17 | 153 | 3.2 | 3.2 | 0.00 | 0.03 | 0.03 | 66 | 1015.9 |
| 20260507154329 | 17 | 126 | 6.4 | 9.7 | 0.00 | 0.03 | 0.03 | 67 | 1015.8 |
| 20260507153352 | 18 | 163 | 4.8 | 4.8 | 0.00 | 0.03 | 0.03 | 64 | 1015.5 |
| 20260507152312 | 18 | 123 | 1.6 | 3.2 | 0.00 | 0.03 | 0.03 | 63 | 1015.5 |
| 20260507151232 | 18 | 71 | 1.6 | 1.6 | 0.00 | 0.03 | 0.03 | 64 | 1015.8 |
| 20260507150256 | 18 | 359 | 3.2 | 3.2 | 0.00 | 0.03 | 0.03 | 65 | 1015.8 |
| 20260507145217 | 18 | 359 | 1.6 | 1.6 | 0.00 | 0.03 | 0.03 | 68 | 1015.7 |
| 20260507144340 | 18 | 358 | 4.8 | 4.8 | 0.00 | 0.03 | 0.03 | 67 | 1015.8 |
| 20260507143305 | 17 | 27 | 1.6 | 3.2 | 0.00 | 0.03 | 0.03 | 65 | 1015.7 |
| 20260507142245 | 18 | 89 | 1.6 | 1.6 | 0.00 | 0.03 | 0.03 | 64 | 1015.9 |
| 20260507141129 | 18 | 133 | 3.2 | 4.8 | 0.00 | 0.03 | 0.03 | 64 | 1015.9 |
| 20260507140133 | 18 | 63 | 0.0 | 1.6 | 0.00 | 0.03 | 0.03 | 67 | 1015.9 |
| 20260507135201 | 18 | 79 | 0.0 | 1.6 | 0.00 | 0.03 | 0.03 | 67 | 1015.8 |
| 20260507134201 | 18 | 145 | 1.6 | 3.2 | 0.00 | 0.03 | 0.03 | 66 | 1016.0 |
| 20260507133149 | 18 | 95 | 0.0 | 1.6 | 0.00 | 0.03 | 0.03 | 66 | 1015.8 |
| 20260507132152 | 17 | 352 | 0.0 | 0.0 | 0.00 | 0.03 | 0.03 | 66 | 1015.6 |
| 20260507131112 | 17 | 255 | 4.8 | 4.8 | 0.00 | 0.03 | 0.03 | 66 | 1015.9 |
| 20260507125929 | 18 | 251 | 4.8 | 4.8 | 0.00 | 0.03 | 0.03 | 67 | 1016.0 |
| 20260507124952 | 18 | 62 | 1.6 | 3.2 | 0.00 | 0.03 | 0.03 | 66 | 1015.8 |
| 20260507123914 | 18 | 340 | 3.2 | 3.2 | 0.00 | 0.03 | 0.03 | 64 | 1015.9 |
| 20260507122749 | 18 | 310 | 4.8 | 4.8 | 0.00 | 0.03 | 0.03 | 64 | 1015.8 |
| 20260507121753 | 19 | 71 | 1.6 | 4.8 | 0.00 | 0.03 | 0.03 | 64 | 1015.8 |
| 20260507120713 | 18 | 277 | 3.2 | 3.2 | 0.00 | 0.03 | 0.03 | 67 | 1015.9 |
| 20260507115529 | 18 | 103 | 4.8 | 4.8 | 0.00 | 0.03 | 0.03 | 64 | 1016.2 |
| 20260507114552 | 18 | 346 | 3.2 | 3.2 | 0.03 | 0.03 | 0.03 | 70 | 1016.0 |
| 20260507113533 | 17 | 262 | 6.4 | 9.7 | 0.03 | 0.03 | 0.03 | 71 | 1016.0 |
| 20260507112329 | 16 | 251 | 8.0 | 9.7 | 0.03 | 0.03 | 0.03 | 73 | 1016.5 |
| 20260507111352 | 16 | 348 | 1.6 | 1.6 | 0.03 | 0.03 | 0.03 | 77 | 1016.3 |
| 20260507110313 | 16 | 348 | 1.6 | 3.2 | 0.03 | 0.03 | 0.03 | 80 | 1016.4 |
| 20260507105129 | 16 | 347 | 1.6 | 3.2 | 0.03 | 0.03 | 0.03 | 78 | 1016.4 |
| 20260507104212 | 16 | 264 | 6.4 | 8.0 | 0.00 | 0.00 | 0.00 | 74 | 1016.0 |
| 20260507103113 | 16 | 337 | 6.4 | 8.0 | 0.00 | 0.00 | 0.00 | 73 | 1016.3 |
| 20260507101948 | 16 | 301 | 8.0 | 8.0 | 0.00 | 0.00 | 0.00 | 73 | 1016.2 |
| 20260507100953 | 17 | 289 | 6.4 | 8.0 | 0.00 | 0.00 | 0.00 | 73 | 1015.9 |
| 20260507095913 | 17 | 275 | 8.0 | 8.0 | 0.00 | 0.00 | 0.00 | 72 | 1015.8 |
| 20260507094729 | 17 | 79 | 0.0 | 1.6 | 0.00 | 0.00 | 0.00 | 70 | 1016.0 |
| 20260507093753 | 17 | 3 | 3.2 | 3.2 | 0.00 | 0.00 | 0.00 | 70 | 1015.8 |
| 20260507092753 | 17 | 90 | 4.8 | 4.8 | 0.00 | 0.00 | 0.00 | 72 | 1015.7 |
| 20260507091529 | 17 | 54 | 0.0 | 0.0 | 0.00 | 0.00 | 0.00 | 71 | 1015.8 |
| 20260507090553 | 17 | 107 | 1.6 | 1.6 | 0.00 | 0.00 | 0.00 | 71 | 1015.5 |
| 20260507085513 | 17 | 342 | 0.0 | 0.0 | 0.00 | 0.00 | 0.00 | 72 | 1015.3 |
| 20260507084330 | 16 | 337 | 0.0 | 1.6 | 0.00 | 0.00 | 0.00 | 72 | 1015.2 |
| 20260507083353 | 17 | 152 | 1.6 | 3.2 | 0.00 | 0.00 | 0.00 | 72 | 1015.3 |
| 20260507082313 | 16 | 220 | 6.4 | 9.7 | 0.00 | 0.00 | 0.00 | 73 | 1015.3 |
| 20260507081129 | 16 | 337 | 1.6 | 3.2 | 0.00 | 0.00 | 0.00 | 74 | 1015.2 |
| 20260507080153 | 16 | 336 | 9.7 | 11.3 | 0.00 | 0.00 | 0.00 | 74 | 1015.1 |
| 20260507075113 | 16 | 339 | 8.0 | 9.7 | 0.00 | 0.00 | 0.00 | 75 | 1015.3 |
| 20260507073929 | 16 | 349 | 9.7 | 12.9 | 0.00 | 0.00 | 0.00 | 74 | 1015.1 |
| 20260507072953 | 16 | 81 | 1.6 | 1.6 | 0.00 | 0.00 | 0.00 | 74 | 1014.9 |
| 20260507071913 | 16 | 131 | 3.2 | 3.2 | 0.00 | 0.00 | 0.00 | 73 | 1014.9 |
| 20260507070938 | 16 | 86 | 4.8 | 4.8 | 0.00 | 0.00 | 0.00 | 74 | 1014.8 |
| 20260507070001 | 16 | 84 | 1.6 | 1.6 | 0.00 | 0.00 | 0.00 | 73 | 1014.8 |
| 20260507065025 | 16 | 82 | 3.2 | 3.2 | 0.00 | 0.00 | 0.00 | 74 | 1014.7 |
| 20260507063932 | 16 | 53 | 4.8 | 8.0 | 0.00 | 0.00 | 0.00 | 75 | 1014.8 |
| 20260507062728 | 16 | 321 | 1.6 | 1.6 | 0.00 | 0.00 | 0.00 | 72 | 1014.8 |
| 20260507061812 | 16 | 120 | 3.2 | 4.8 | 0.00 | 0.00 | 0.00 | 75 | 1014.6 |
| 20260507060732 | 15 | 129 | 3.2 | 3.2 | 0.00 | 0.00 | 0.00 | 77 | 1014.7 |
| 20260507055528 | 15 | 87 | 3.2 | 4.8 | 0.00 | 0.00 | 0.00 | 79 | 1014.7 |
| 20260507054552 | 15 | 67 | 1.6 | 1.6 | 0.00 | 0.00 | 0.00 | 78 | 1013.9 |
| 20260507053512 | 15 | 99 | 1.6 | 1.6 | 0.00 | 0.00 | 0.00 | 78 | 1014.3 |
| 20260507052328 | 15 | 100 | 0.0 | 0.0 | 0.00 | 0.00 | 0.00 | 79 | 1013.8 |
| 20260507051352 | 15 | 59 | 0.0 | 0.0 | 0.00 | 0.00 | 0.00 | 79 | 1014.1 |
| 20260507050312 | 15 | 73 | 0.0 | 1.6 | 0.00 | 0.00 | 0.00 | 78 | 1014.1 |
| 20260507045128 | 14 | 91 | 0.0 | 0.0 | 0.00 | 0.00 | 0.00 | 82 | 1013.6 |
| 20260507044152 | 13 | 60 | 0.0 | 0.0 | 0.00 | 0.00 | 0.00 | 83 | 1013.7 |
| 20260507043112 | 13 | 61 | 0.0 | 0.0 | 0.00 | 0.00 | 0.00 | 84 | 1013.6 |
| 20260507041928 | 13 | 59 | 0.0 | 0.0 | 0.00 | 0.00 | 0.00 | 84 | 1013.4 |
| 20260507040952 | 13 | 17 | 0.0 | 0.0 | 0.00 | 0.00 | 0.00 | 84 | 1013.4 |
| 20260507035933 | 12 | 338 | 0.0 | 0.0 | 0.00 | 0.00 | 0.00 | 84 | 1013.1 |
| 20260507034728 | 13 | 55 | 0.0 | 0.0 | 0.00 | 0.00 | 0.00 | 83 | 1013.0 |
| 20260507033752 | 13 | 351 | 0.0 | 0.0 | 0.00 | 0.00 | 0.00 | 83 | 1013.4 |
| 20260507032712 | 13 | 340 | 1.6 | 1.6 | 0.00 | 0.00 | 0.00 | 82 | 1012.8 |
| 20260507031528 | 13 | 180 | 1.6 | 1.6 | 0.00 | 0.00 | 0.00 | 81 | 1012.8 |
| 20260507030552 | 13 | 286 | 3.2 | 3.2 | 0.00 | 0.00 | 0.00 | 80 | 1013.0 |
| 20260507025512 | 13 | 111 | 3.2 | 3.2 | 0.00 | 0.00 | 0.00 | 80 | 1012.9 |
| 20260507024348 | 13 | 49 | 3.2 | 3.2 | 0.00 | 0.00 | 0.00 | 80 | 1012.9 |
| 20260507023352 | 14 | 23 | 1.6 | 3.2 | 0.00 | 0.00 | 0.00 | 79 | 1012.6 |
| 20260507022332 | 14 | 94 | 1.6 | 3.2 | 0.00 | 0.00 | 0.00 | 78 | 1012.7 |
| 20260507021148 | 14 | 131 | 9.7 | 12.9 | 0.00 | 0.00 | 0.00 | 78 | 1012.5 |
| 20260507020152 | 14 | 128 | 11.3 | 14.5 | 0.00 | 0.00 | 0.00 | 78 | 1012.6 |
| 20260507015112 | 14 | 92 | 6.4 | 8.0 | 0.00 | 0.00 | 0.00 | 79 | 1012.7 |
| 20260507013928 | 14 | 69 | 11.3 | 16.1 | 0.00 | 0.00 | 0.00 | 79 | 1012.6 |
| 20260507012952 | 14 | 96 | 1.6 | 1.6 | 0.00 | 0.00 | 0.00 | 78 | 1012.6 |
| 20260507011912 | 14 | 118 | 19.3 | 22.5 | 0.00 | 0.00 | 0.00 | 79 | 1012.3 |
| 20260507010932 | 14 | 89 | 4.8 | 4.8 | 0.00 | 0.00 | 0.00 | 79 | 1012.1 |
| 20260507010020 | 13 | 91 | 4.8 | 9.7 | 0.00 | 0.00 | 0.00 | 80 | 1012.4 |
| 20260507004920 | 13 | 70 | 4.8 | 4.8 | 0.00 | 0.00 | 0.00 | 80 | 1012.5 |
| 20260507003944 | 13 | 50 | 3.2 | 4.8 | 0.00 | 0.00 | 0.00 | 80 | 1012.4 |
| 20260507002952 | 14 | 45 | 6.4 | 8.0 | 0.00 | 0.00 | 0.00 | 79 | 1011.9 |
| 20260507001912 | 14 | 143 | 12.9 | 14.5 | 0.00 | 0.00 | 0.00 | 78 | 1011.8 |
| 20260507000748 | 15 | 149 | 8.0 | 12.9 | 0.00 | 0.00 | 0.00 | 77 | 1012.2 |
| 20260506235752 | 15 | 142 | 9.7 | 11.3 | 0.00 | 0.00 | 0.00 | 77 | 1012.3 |
| 20260506234712 | 15 | 104 | 3.2 | 3.2 | 0.00 | 0.00 | 0.00 | 76 | 1012.3 |
| 20260506233528 | 15 | 140 | 8.0 | 9.7 | 0.00 | 0.00 | 0.00 | 76 | 1012.2 |
| 20260506232612 | 15 | 152 | 11.3 | 12.9 | 0.00 | 0.00 | 0.00 | 75 | 1012.2 |